createdAt,value
2023-05-10T00:02:23.955Z,4.68
2023-05-10T00:04:51.162Z,3.60
2023-05-10T00:07:19.035Z,4.90
2023-05-10T00:09:45.819Z,4.45
2023-05-10T00:12:12.688Z,4.45
2023-05-10T00:14:39.474Z,4.68
2023-05-10T00:17:06.318Z,4.80
2023-05-10T00:19:33.207Z,4.30
2023-05-10T00:22:00.010Z,4.70
2023-05-10T00:24:26.822Z,4.88
2023-05-10T00:26:53.591Z,4.40
2023-05-10T00:29:20.637Z,4.68
2023-05-10T00:31:48.160Z,4.75
2023-05-10T00:34:15.045Z,4.78
2023-05-10T00:36:41.893Z,4.93
2023-05-10T00:39:08.847Z,5.00
2023-05-10T00:41:35.644Z,5.38
2023-05-10T00:44:05.099Z,4.57
2023-05-10T00:46:32.612Z,5.07
2023-05-10T00:49:00.065Z,4.78
2023-05-10T00:51:27.162Z,5.27
2023-05-10T00:53:54.417Z,5.20
2023-05-10T00:56:23.992Z,5.00
2023-05-10T00:58:51.353Z,5.22
2023-05-10T01:01:18.507Z,4.90
2023-05-10T01:03:46.202Z,5.25
2023-05-10T01:06:13.341Z,5.30
2023-05-10T01:08:40.651Z,5.13
2023-05-10T01:11:07.738Z,5.43
2023-05-10T01:13:40.434Z,5.00
2023-05-10T01:16:07.937Z,4.90
2023-05-10T01:18:39.353Z,4.95
2023-05-10T01:21:09.051Z,5.13
2023-05-10T01:24:06.967Z,5.25
2023-05-10T01:29:44.405Z,4.95
2023-05-10T01:32:20.577Z,5.10
2023-05-10T01:35:06.295Z,5.30
2023-05-10T01:37:45.166Z,5.05
2023-05-10T01:40:27.248Z,5.00
2023-05-10T01:43:00.360Z,5.50
2023-05-10T01:45:37.878Z,5.43
2023-05-10T01:48:11.004Z,5.70
2023-05-10T01:50:42.600Z,5.45
2023-05-10T01:53:12.411Z,5.80
2023-05-10T01:55:59.568Z,5.60
2023-05-10T01:58:30.637Z,5.50
2023-05-10T02:01:01.658Z,5.30
2023-05-10T02:03:30.176Z,5.63
2023-05-10T02:05:59.742Z,5.03
2023-05-10T02:08:28.173Z,5.47
2023-05-10T02:10:57.083Z,5.28
2023-05-10T02:13:27.047Z,5.40
2023-05-10T02:15:55.334Z,5.47
2023-05-10T02:18:24.814Z,5.40
2023-05-10T02:20:53.322Z,5.68
2023-05-10T02:23:21.134Z,5.65
2023-05-10T02:25:50.318Z,5.72
2023-05-10T02:28:19.260Z,5.60
2023-05-10T02:30:47.889Z,5.55
2023-05-10T02:33:15.462Z,6.57
2023-05-10T02:35:42.825Z,6.47
2023-05-10T02:38:10.812Z,5.77
2023-05-10T02:40:38.805Z,5.35
2023-05-10T02:43:07.311Z,5.93
2023-05-10T02:45:37.356Z,5.97
2023-05-10T02:48:04.526Z,5.65
2023-05-10T02:50:33.323Z,6.20
2023-05-10T02:53:20.106Z,6.18
2023-05-10T02:55:52.684Z,6.07
2023-05-10T02:58:22.282Z,6.53
2023-05-10T03:00:49.230Z,6.43
2023-05-10T03:03:16.057Z,5.97
2023-05-10T03:05:42.868Z,6.25
2023-05-10T03:08:10.258Z,6.30
2023-05-10T03:10:46.211Z,6.35
2023-05-10T03:13:31.398Z,6.85
2023-05-10T03:16:08.759Z,6.47
2023-05-10T03:18:45.420Z,6.13
2023-05-10T03:21:14.464Z,6.82
2023-05-10T03:23:53.095Z,6.07
2023-05-10T03:26:26.582Z,6.35
2023-05-10T03:29:00.474Z,6.35
2023-05-10T03:31:27.990Z,6.75
2023-05-10T03:33:55.198Z,6.65
2023-05-10T03:36:26.427Z,6.47
2023-05-10T03:38:55.827Z,6.90
2023-05-10T03:41:22.877Z,6.38
2023-05-10T03:43:49.684Z,6.93
2023-05-10T03:46:16.569Z,6.38
2023-05-10T03:48:43.853Z,6.07
2023-05-10T03:51:10.858Z,6.93
2023-05-10T03:53:38.309Z,6.20
2023-05-10T03:56:05.405Z,5.75
2023-05-10T03:58:32.184Z,7.03
2023-05-10T04:00:59.157Z,6.50
2023-05-10T04:03:27.225Z,6.28
2023-05-10T04:06:02.253Z,6.22
2023-05-10T04:08:29.920Z,6.05
2023-05-10T04:11:11.484Z,6.03
2023-05-10T04:13:39.040Z,5.97
2023-05-10T04:16:06.300Z,6.20
2023-05-10T04:18:33.120Z,5.77
2023-05-10T04:20:59.932Z,6.00
2023-05-10T04:23:27.914Z,5.70
2023-05-10T04:26:00.875Z,6.03
2023-05-10T04:28:28.180Z,6.30
2023-05-10T04:31:04.962Z,5.65
2023-05-10T04:33:32.563Z,6.15
2023-05-10T04:35:59.392Z,6.37
2023-05-10T04:38:26.647Z,5.82
2023-05-10T04:40:53.867Z,5.80
2023-05-10T04:43:21.227Z,6.10
2023-05-10T04:45:48.082Z,5.60
2023-05-10T04:48:15.053Z,5.35
2023-05-10T04:50:42.009Z,6.15
2023-05-10T04:53:09.006Z,5.40
2023-05-10T04:55:36.559Z,5.47
2023-05-10T04:58:03.807Z,5.47
2023-05-10T05:00:30.653Z,5.35
2023-05-10T05:02:57.489Z,4.68
2023-05-10T05:05:24.448Z,4.85
2023-05-10T05:07:51.601Z,4.75
2023-05-10T05:10:18.799Z,4.88
2023-05-10T05:12:45.854Z,4.90
2023-05-10T05:15:12.873Z,4.68
2023-05-10T05:17:39.782Z,4.47
2023-05-10T05:20:07.354Z,4.65
2023-05-10T05:22:34.109Z,4.25
2023-05-10T05:25:01.606Z,4.38
2023-05-10T05:27:28.852Z,4.47
2023-05-10T05:29:56.446Z,4.32
2023-05-10T05:32:24.410Z,4.07
2023-05-10T05:34:51.943Z,4.30
2023-05-10T05:37:22.505Z,4.50
2023-05-10T05:39:49.537Z,4.00
2023-05-10T05:42:18.590Z,4.13
2023-05-10T05:44:45.753Z,3.92
2023-05-10T05:47:12.684Z,3.90
2023-05-10T05:49:40.282Z,3.90
2023-05-10T05:52:07.229Z,3.95
2023-05-10T05:54:34.180Z,3.67
2023-05-10T05:57:01.782Z,4.22
2023-05-10T05:59:29.172Z,4.70
2023-05-10T06:01:56.048Z,3.93
2023-05-10T06:04:22.965Z,3.95
2023-05-10T06:06:49.918Z,3.90
2023-05-10T06:09:16.965Z,4.20
2023-05-10T06:11:43.835Z,4.30
2023-05-10T06:14:10.697Z,3.65
2023-05-10T06:16:37.772Z,3.95
2023-05-10T06:19:04.833Z,3.80
2023-05-10T06:21:31.698Z,3.97
2023-05-10T06:23:58.680Z,3.92
2023-05-10T06:26:25.836Z,3.92
2023-05-10T06:28:52.820Z,3.72
2023-05-10T06:31:19.736Z,3.92
2023-05-10T06:33:46.826Z,3.45
2023-05-10T06:36:14.326Z,3.75
2023-05-10T06:38:41.407Z,3.67
2023-05-10T06:41:08.240Z,3.63
2023-05-10T06:43:35.757Z,3.28
2023-05-10T06:46:02.771Z,3.60
2023-05-10T06:48:29.814Z,3.47
2023-05-10T06:50:56.751Z,3.50
2023-05-10T06:53:23.645Z,3.25
2023-05-10T06:55:50.753Z,3.45
2023-05-10T06:58:17.596Z,3.08
2023-05-10T07:00:46.302Z,3.22
2023-05-10T07:03:13.283Z,3.38
2023-05-10T07:05:40.185Z,3.17
2023-05-10T07:08:07.606Z,3.00
2023-05-10T07:10:35.330Z,3.37
2023-05-10T07:13:02.288Z,3.20
2023-05-10T07:15:29.578Z,3.28
2023-05-10T07:17:56.554Z,3.00
2023-05-10T07:20:23.512Z,3.10
2023-05-10T07:22:50.393Z,3.03
2023-05-10T07:25:17.394Z,2.90
2023-05-10T07:27:44.568Z,2.80
2023-05-10T07:30:11.962Z,2.92
2023-05-10T07:32:40.377Z,2.42
2023-05-10T07:35:07.861Z,2.80
2023-05-10T07:37:34.998Z,2.80
2023-05-10T07:40:02.067Z,3.33
2023-05-10T07:42:29.020Z,2.85
2023-05-10T07:44:55.861Z,2.70
2023-05-10T07:47:22.725Z,2.90
2023-05-10T07:49:49.775Z,2.90
2023-05-10T07:52:17.098Z,3.00
2023-05-10T07:54:43.886Z,2.90
2023-05-10T07:57:10.961Z,2.90
2023-05-10T07:59:37.849Z,2.75
2023-05-10T08:02:04.767Z,2.70
2023-05-10T08:04:31.726Z,2.83
2023-05-10T08:06:58.580Z,2.70
2023-05-10T08:09:25.622Z,2.67
2023-05-10T08:11:52.513Z,2.50
2023-05-10T08:14:19.371Z,2.88
2023-05-10T08:16:46.251Z,2.78
2023-05-10T08:19:13.090Z,2.80
2023-05-10T08:21:41.561Z,3.03
2023-05-10T08:24:08.728Z,3.00
2023-05-10T08:26:35.644Z,2.90
2023-05-10T08:29:02.491Z,2.72
2023-05-10T08:31:29.478Z,2.53
2023-05-10T08:33:56.262Z,2.40
2023-05-10T08:36:25.519Z,2.50
2023-05-10T08:38:53.219Z,2.30
2023-05-10T08:41:25.508Z,2.60
2023-05-10T08:43:54.492Z,2.40
2023-05-10T08:46:23.353Z,2.50
2023-05-10T08:48:52.524Z,2.30
2023-05-10T08:51:22.970Z,2.67
2023-05-10T08:53:50.207Z,2.92
2023-05-10T08:56:18.767Z,2.43
2023-05-10T08:58:45.855Z,2.70
2023-05-10T09:01:14.694Z,2.65
2023-05-10T09:03:41.797Z,2.80
2023-05-10T09:06:08.950Z,2.65
2023-05-10T09:08:37.500Z,2.40
2023-05-10T09:11:04.561Z,2.60
2023-05-10T09:13:32.108Z,1.90
2023-05-10T09:16:06.937Z,2.60
2023-05-10T09:18:41.290Z,2.20
2023-05-10T09:21:08.678Z,2.47
2023-05-10T09:23:35.566Z,2.67
2023-05-10T09:26:06.691Z,2.30
2023-05-10T09:28:34.862Z,2.95
2023-05-10T09:31:01.738Z,2.40
2023-05-10T09:33:28.601Z,2.35
2023-05-10T09:35:56.155Z,2.72
2023-05-10T09:38:24.278Z,2.38
2023-05-10T09:41:04.059Z,2.80
2023-05-10T09:43:38.980Z,2.55
2023-05-10T09:46:11.228Z,2.30
2023-05-10T09:48:48.683Z,2.28
2023-05-10T09:51:23.446Z,1.90
2023-05-10T09:54:13.636Z,2.40
2023-05-10T09:56:41.603Z,2.17
2023-05-10T10:01:37.830Z,2.00
2023-05-10T10:04:09.721Z,2.17
2023-05-10T10:06:40.667Z,1.90
2023-05-10T10:09:08.640Z,2.05
2023-05-10T10:14:03.488Z,2.28
2023-05-10T10:16:31.733Z,2.30
2023-05-10T10:18:59.412Z,3.00
2023-05-10T10:21:26.663Z,2.70
2023-05-10T10:23:54.068Z,2.33
2023-05-10T10:26:22.399Z,2.40
2023-05-10T10:28:52.880Z,2.30
2023-05-10T10:31:31.559Z,1.95
2023-05-10T10:34:10.665Z,2.05
2023-05-10T10:36:47.334Z,2.25
2023-05-10T10:39:15.283Z,2.17
2023-05-10T10:41:53.403Z,1.90
2023-05-10T10:44:26.142Z,2.08
2023-05-10T10:47:30.842Z,2.05
2023-05-10T10:50:01.084Z,1.95
2023-05-10T10:52:33.877Z,2.15
2023-05-10T10:55:07.713Z,2.25
2023-05-10T10:58:03.673Z,2.10
2023-05-10T11:00:45.471Z,2.10
2023-05-10T11:03:15.749Z,2.15
2023-05-10T11:05:47.179Z,2.22
2023-05-10T11:08:29.055Z,1.90
2023-05-10T11:11:03.169Z,1.80
2023-05-10T11:13:32.734Z,2.05
2023-05-10T11:16:11.093Z,2.05
2023-05-10T11:21:10.204Z,1.90
2023-05-10T11:23:50.873Z,2.03
2023-05-10T11:26:18.005Z,2.05
2023-05-10T11:28:46.223Z,1.95
2023-05-10T11:31:20.378Z,1.90
2023-05-10T11:33:58.290Z,1.90
2023-05-10T11:36:28.349Z,2.15
2023-05-10T11:38:57.149Z,2.00
2023-05-10T11:41:25.492Z,2.35
2023-05-10T11:43:54.721Z,2.50
2023-05-10T11:46:24.349Z,1.90
2023-05-10T11:48:54.282Z,1.95
2023-05-10T11:51:22.907Z,1.85
2023-05-10T11:53:52.281Z,1.65
2023-05-10T11:56:19.424Z,1.90
2023-05-10T11:58:47.979Z,1.87
2023-05-10T12:01:15.158Z,2.30
2023-05-10T12:03:42.318Z,1.75
2023-05-10T12:06:09.338Z,1.52
2023-05-10T12:08:36.193Z,1.70
2023-05-10T12:11:11.363Z,1.67
2023-05-10T12:13:43.218Z,1.50
2023-05-10T12:16:24.652Z,1.48
2023-05-10T12:18:57.262Z,1.55
2023-05-10T12:21:24.921Z,1.70
2023-05-10T12:24:03.825Z,1.10
2023-05-10T12:26:30.851Z,1.30
2023-05-10T12:29:14.107Z,1.30
2023-05-10T12:31:55.282Z,1.45
2023-05-10T12:34:37.077Z,1.30
2023-05-10T12:37:04.706Z,1.58
2023-05-10T12:39:45.216Z,1.50
2023-05-10T12:42:12.862Z,1.52
2023-05-10T12:44:40.100Z,1.40
2023-05-10T12:47:07.126Z,1.45
2023-05-10T12:52:01.618Z,1.60
2023-05-10T12:54:28.828Z,1.70
2023-05-10T13:01:50.495Z,1.50
2023-05-10T13:04:17.340Z,1.35
2023-05-10T13:06:44.343Z,1.55
2023-05-10T13:09:11.333Z,1.35
2023-05-10T13:11:38.471Z,1.40
2023-05-10T13:18:59.572Z,1.50
2023-05-10T13:23:54.320Z,1.80
2023-05-10T13:26:21.316Z,1.48
2023-05-10T13:28:49.958Z,1.70
2023-05-10T13:31:17.043Z,1.45
2023-05-10T13:33:43.965Z,1.40
2023-05-10T13:36:10.824Z,1.50
2023-05-10T13:38:38.356Z,1.58
2023-05-10T13:41:05.509Z,1.40
2023-05-10T13:43:32.410Z,1.77
2023-05-10T13:45:59.327Z,1.80
2023-05-10T13:48:28.034Z,1.90
2023-05-10T13:50:54.992Z,2.00
2023-05-10T13:53:22.062Z,1.77
2023-05-10T13:55:50.100Z,1.85
2023-05-10T13:58:16.863Z,1.85
2023-05-10T14:00:43.779Z,1.90
2023-05-10T14:03:12.108Z,1.63
2023-05-10T14:05:39.448Z,1.60
2023-05-10T14:08:06.358Z,1.48
2023-05-10T14:10:33.255Z,1.67
2023-05-10T14:13:00.244Z,2.00
2023-05-10T14:15:27.395Z,1.90
2023-05-10T14:17:54.354Z,2.22
2023-05-10T14:20:21.401Z,1.70
2023-05-10T14:22:48.380Z,2.00
2023-05-10T14:25:16.261Z,1.75
2023-05-10T14:27:43.563Z,1.85
2023-05-10T14:30:11.060Z,2.08
2023-05-10T14:32:38.135Z,2.30
2023-05-10T14:35:06.893Z,1.90
2023-05-10T14:37:33.996Z,1.80
2023-05-10T14:40:00.904Z,1.90
2023-05-10T14:42:27.823Z,2.10
2023-05-10T14:44:54.875Z,2.03
2023-05-10T14:47:21.884Z,2.20
2023-05-10T14:49:48.940Z,2.27
2023-05-10T14:52:15.894Z,2.20
2023-05-10T14:54:42.830Z,2.50
2023-05-10T14:57:10.214Z,2.65
2023-05-10T14:59:40.047Z,2.40
2023-05-10T15:02:09.216Z,2.47
2023-05-10T15:04:39.675Z,2.72
2023-05-10T15:07:06.999Z,2.88
2023-05-10T15:09:33.983Z,2.80
2023-05-10T15:12:01.510Z,2.73
2023-05-10T15:14:28.659Z,2.58
2023-05-10T15:16:56.051Z,2.63
2023-05-10T15:19:22.951Z,3.10
2023-05-10T15:21:49.940Z,3.33
2023-05-10T15:24:17.077Z,3.53
2023-05-10T15:26:44.618Z,3.75
2023-05-10T15:29:11.518Z,3.20
2023-05-10T15:31:38.337Z,3.60
2023-05-10T15:34:05.219Z,3.50
2023-05-10T15:36:33.092Z,3.75
2023-05-10T15:41:26.683Z,3.27
2023-05-10T15:43:54.801Z,4.40
2023-05-10T15:48:48.567Z,3.77
2023-05-10T15:51:15.822Z,4.00
2023-05-10T15:53:52.843Z,4.38
2023-05-10T15:56:27.663Z,4.20
2023-05-10T15:58:54.671Z,3.83
2023-05-10T16:01:21.786Z,3.90
2023-05-10T16:03:48.947Z,3.67
2023-05-10T16:06:15.974Z,3.70
2023-05-10T16:08:42.939Z,3.92
2023-05-10T16:11:09.723Z,3.40
2023-05-10T16:13:39.065Z,3.60
2023-05-10T16:16:06.680Z,3.67
2023-05-10T16:18:33.680Z,3.40
2023-05-10T16:21:01.758Z,3.58
2023-05-10T16:23:28.944Z,3.85
2023-05-10T16:25:55.928Z,3.67
2023-05-10T16:28:22.796Z,3.67
2023-05-10T16:30:49.761Z,3.50
2023-05-10T16:33:16.898Z,3.80
2023-05-10T16:35:43.999Z,3.30
2023-05-10T16:38:11.349Z,3.05
2023-05-10T16:40:38.218Z,3.22
2023-05-10T16:43:05.095Z,3.55
2023-05-10T16:45:32.669Z,3.70
2023-05-10T16:47:59.751Z,3.35
2023-05-10T16:50:26.639Z,3.57
2023-05-10T16:52:53.535Z,3.00
2023-05-10T16:55:20.924Z,3.50
2023-05-10T16:57:47.904Z,3.05
2023-05-10T17:00:15.524Z,3.97
2023-05-10T17:02:42.575Z,4.15
2023-05-10T17:05:09.891Z,6.03
2023-05-10T17:07:36.842Z,3.40
2023-05-10T17:10:03.885Z,3.60
2023-05-10T17:12:30.804Z,4.40
2023-05-10T17:14:58.650Z,3.28
2023-05-10T17:17:25.541Z,3.65
2023-05-10T17:19:52.659Z,3.50
2023-05-10T17:24:46.543Z,3.53
2023-05-10T17:27:14.542Z,3.50
2023-05-10T17:32:10.949Z,3.33
2023-05-10T17:34:38.713Z,3.30
2023-05-10T17:37:05.571Z,3.28
2023-05-10T17:39:33.917Z,3.30
2023-05-10T17:42:00.787Z,3.17
2023-05-10T17:44:27.754Z,3.30
2023-05-10T17:46:55.109Z,3.50
2023-05-10T17:49:21.910Z,3.78
2023-05-10T17:51:48.807Z,3.45
2023-05-10T17:54:15.579Z,3.55
2023-05-10T17:56:42.833Z,3.35
2023-05-10T17:59:09.671Z,3.60
2023-05-10T18:01:36.696Z,3.38
2023-05-10T18:04:04.625Z,3.53
2023-05-10T18:06:35.527Z,3.17
2023-05-10T18:09:02.572Z,3.45
2023-05-10T18:11:29.404Z,3.30
2023-05-10T18:13:56.469Z,3.45
2023-05-10T18:16:26.361Z,3.50
2023-05-10T18:18:53.218Z,3.60
2023-05-10T18:21:20.363Z,3.33
2023-05-10T18:23:47.287Z,3.87
2023-05-10T18:26:14.682Z,3.90
2023-05-10T18:28:42.249Z,3.80
2023-05-10T18:31:09.271Z,3.58
2023-05-10T18:33:36.259Z,3.63
2023-05-10T18:36:04.091Z,4.05
2023-05-10T18:38:31.263Z,4.13
2023-05-10T18:41:02.902Z,3.45
2023-05-10T18:43:29.933Z,3.90
2023-05-10T18:45:57.190Z,4.38
2023-05-10T18:48:24.169Z,3.80
2023-05-10T18:50:51.022Z,3.55
2023-05-10T18:53:17.904Z,3.65
2023-05-10T18:55:44.917Z,3.45
2023-05-10T18:58:13.453Z,4.00
2023-05-10T19:00:40.404Z,4.00
2023-05-10T19:03:07.404Z,3.72
2023-05-10T19:05:34.516Z,3.85
2023-05-10T19:08:01.305Z,3.95
2023-05-10T19:10:28.226Z,4.00
2023-05-10T19:12:55.636Z,4.10
2023-05-10T19:15:22.669Z,4.30
2023-05-10T19:17:50.401Z,8.85
2023-05-10T19:20:17.308Z,6.78
2023-05-10T19:23:02.300Z,5.63
2023-05-10T19:25:33.476Z,4.22
2023-05-10T19:28:00.410Z,4.30
2023-05-10T19:30:28.812Z,4.45
2023-05-10T19:32:56.258Z,4.43
2023-05-10T19:35:23.913Z,4.20
2023-05-10T19:37:51.842Z,4.68
2023-05-10T19:40:18.733Z,3.92
2023-05-10T19:42:45.730Z,4.00
2023-05-10T19:45:12.889Z,3.88
2023-05-10T19:47:41.827Z,3.83
2023-05-10T19:50:09.111Z,3.65
2023-05-10T19:52:36.054Z,4.07
2023-05-10T19:55:03.044Z,3.78
2023-05-10T19:57:30.026Z,4.07
2023-05-10T19:59:56.913Z,3.88
2023-05-10T20:02:23.971Z,4.10
2023-05-10T20:04:51.261Z,4.35
2023-05-10T20:07:18.404Z,3.70
2023-05-10T20:09:45.630Z,4.07
2023-05-10T20:12:12.742Z,3.92
2023-05-10T20:14:39.704Z,3.90
2023-05-10T20:17:06.747Z,4.05
2023-05-10T20:19:33.746Z,3.83
2023-05-10T20:22:00.766Z,4.03
2023-05-10T20:24:27.896Z,3.70
2023-05-10T20:26:54.677Z,3.90
2023-05-10T20:29:21.601Z,3.95
2023-05-10T20:31:48.533Z,4.00
2023-05-10T20:34:15.768Z,3.80
2023-05-10T20:36:43.106Z,4.05
2023-05-10T20:39:10.367Z,3.77
2023-05-10T20:41:37.506Z,4.00
2023-05-10T20:44:05.818Z,4.35
2023-05-10T20:46:33.629Z,4.15
2023-05-10T20:49:00.864Z,4.13
2023-05-10T20:51:30.302Z,4.23
2023-05-10T20:53:57.783Z,4.45
2023-05-10T20:56:24.790Z,3.92
2023-05-10T20:58:51.894Z,4.25
2023-05-10T21:01:18.905Z,3.90
2023-05-10T21:03:45.729Z,4.00
2023-05-10T21:06:12.580Z,3.72
2023-05-10T21:08:39.420Z,3.88
2023-05-10T21:11:06.256Z,4.32
2023-05-10T21:13:33.341Z,3.80
2023-05-10T21:16:00.420Z,4.13
2023-05-10T21:18:27.561Z,3.90
2023-05-10T21:20:54.519Z,4.32
2023-05-10T21:23:21.401Z,4.20
2023-05-10T21:25:48.348Z,4.22
2023-05-10T21:28:15.190Z,4.10
2023-05-10T21:30:42.009Z,4.47
2023-05-10T21:33:09.037Z,4.57
2023-05-10T21:35:39.134Z,4.90
2023-05-10T21:38:06.019Z,4.47
2023-05-10T21:40:32.950Z,5.00
2023-05-10T21:43:00.052Z,4.75
2023-05-10T21:45:27.301Z,4.80
2023-05-10T21:47:54.647Z,4.30
2023-05-10T21:50:21.908Z,4.50
2023-05-10T21:52:48.828Z,4.95
2023-05-10T21:55:16.728Z,4.72
2023-05-10T21:57:44.892Z,4.90
2023-05-10T22:02:39.980Z,5.80
2023-05-10T22:05:07.075Z,5.82
2023-05-10T22:07:34.602Z,5.80
2023-05-10T22:10:01.528Z,6.35
2023-05-10T22:12:28.531Z,5.68
2023-05-10T22:15:09.409Z,5.45
2023-05-10T22:17:40.618Z,5.60
2023-05-10T22:20:09.193Z,5.85
2023-05-10T22:22:36.708Z,5.28
2023-05-10T22:25:05.550Z,5.40
2023-05-10T22:27:32.589Z,5.95
2023-05-10T22:29:59.436Z,6.38
2023-05-10T22:32:26.264Z,5.53
2023-05-10T22:34:53.134Z,5.50
2023-05-10T22:37:20.141Z,5.70
2023-05-10T22:39:47.153Z,6.22
2023-05-10T22:42:14.059Z,5.88
2023-05-10T22:44:40.841Z,5.57
2023-05-10T22:47:08.893Z,5.88
2023-05-10T22:52:02.789Z,6.05
2023-05-10T22:54:29.672Z,6.45
2023-05-10T22:56:56.823Z,6.97
2023-05-10T22:59:23.916Z,6.10
2023-05-10T23:01:50.984Z,6.50
2023-05-10T23:04:17.969Z,6.55
2023-05-10T23:06:45.829Z,6.28
2023-05-10T23:09:12.902Z,6.47
2023-05-10T23:11:39.727Z,6.80
2023-05-10T23:14:06.609Z,6.85
2023-05-10T23:16:33.424Z,6.00
2023-05-10T23:19:00.319Z,6.05
2023-05-10T23:21:28.290Z,6.47
2023-05-10T23:23:56.334Z,6.40
2023-05-10T23:26:23.439Z,6.43
2023-05-10T23:28:50.489Z,6.97
2023-05-10T23:31:17.402Z,7.10
2023-05-10T23:33:44.201Z,7.20
2023-05-10T23:36:11.081Z,6.78
2023-05-10T23:38:39.195Z,7.10
2023-05-10T23:41:06.207Z,7.63
2023-05-10T23:43:33.119Z,7.38
2023-05-10T23:45:59.996Z,7.35
2023-05-10T23:48:27.027Z,6.93
2023-05-10T23:50:53.900Z,6.68
2023-05-10T23:53:21.002Z,6.78
2023-05-10T23:55:47.952Z,7.10
2023-05-10T23:58:15.033Z,7.50
